Time;durP1;ratioP1;P1;durP2;ratioP2;P2;SDS_P1;SDS_P2;PMS_P1;PMS_P2;Temp;Humidity;BMP_temperature;BMP_pressure;BME280_temperature;BME280_humidity;BME280_pressure;Samples;Min_cycle;Max_cycle;Signal;HPM_P1;HPM_P2
2023/03/21 00:01:14;;;;;;;126.40;34.23;;;9.30;99.90;;;;;;4990302;28;20426;-73
2023/03/21 00:03:42;;;;;;;100.88;32.40;;;9.30;99.90;;;;;;4970548;28;20442;-76
2023/03/21 00:06:10;;;;;;;111.73;32.20;;;9.30;99.90;;;;;;4984076;28;20448;-75
2023/03/21 00:08:36;;;;;;;87.88;30.02;;;9.30;99.90;;;;;;4971697;28;20454;-76
2023/03/21 00:11:05;;;;;;;93.28;29.40;;;9.30;99.90;;;;;;4984508;28;20441;-77
2023/03/21 00:13:32;;;;;;;83.70;27.73;;;9.40;99.90;;;;;;4984330;28;20781;-78
2023/03/21 00:16:09;;;;;;;103.18;33.40;;;9.30;99.90;;;;;;4990178;28;20422;-77
2023/03/21 00:18:35;;;;;;;108.13;31.63;;;9.30;99.90;;;;;;4991072;28;20403;-76
2023/03/21 00:21:03;;;;;;;101.37;31.27;;;9.30;99.90;;;;;;4989011;28;20476;-75
2023/03/21 00:23:30;;;;;;;95.03;29.25;;;9.30;99.90;;;;;;4988830;28;20848;-77
2023/03/21 00:25:57;;;;;;;125.95;33.33;;;9.30;99.90;;;;;;4986730;28;20963;-74
2023/03/21 00:28:23;;;;;;;107.38;31.00;;;9.30;99.90;;;;;;4990550;28;20792;-76
2023/03/21 00:30:50;;;;;;;101.25;29.90;;;9.40;99.90;;;;;;4971559;28;20472;-75
2023/03/21 00:33:20;;;;;;;93.03;29.33;;;9.40;99.90;;;;;;4986717;28;20433;-74
2023/03/21 00:35:48;;;;;;;101.00;29.90;;;9.40;99.90;;;;;;4971992;28;20438;-75
2023/03/21 00:38:15;;;;;;;85.17;28.40;;;9.40;99.90;;;;;;4986307;28;20424;-75
2023/03/21 00:40:40;;;;;;;72.13;27.35;;;9.40;99.90;;;;;;4985821;28;20872;-76
2023/03/21 00:43:06;;;;;;;75.05;26.27;;;9.40;99.90;;;;;;4989033;28;20481;-75
2023/03/21 00:45:31;;;;;;;65.20;26.02;;;9.30;99.90;;;;;;4990551;28;20419;-75
2023/03/21 00:47:57;;;;;;;71.50;26.00;;;9.40;99.90;;;;;;4986763;28;20533;-75
2023/03/21 00:50:24;;;;;;;53.97;22.30;;;9.30;99.90;;;;;;4989466;28;20530;-75
2023/03/21 00:52:50;;;;;;;55.03;23.98;;;9.30;99.90;;;;;;4988247;28;21028;-74
2023/03/21 00:55:17;;;;;;;56.00;21.97;;;9.40;99.90;;;;;;4990534;28;20509;-75
2023/03/21 00:57:44;;;;;;;49.72;20.70;;;9.30;99.90;;;;;;4967068;28;20444;-74
2023/03/21 01:00:13;;;;;;;44.17;18.98;;;9.30;99.90;;;;;;4989490;28;20420;-75
2023/03/21 01:02:55;;;;;;;52.95;22.00;;;9.40;99.90;;;;;;4987538;28;20434;-76
2023/03/21 01:08:12;;;;;;;67.57;25.60;;;9.40;99.90;;;;;;4974250;28;20440;-76
2023/03/21 01:10:43;;;;;;;58.00;23.67;;;9.40;99.90;;;;;;4984768;28;20968;-76
2023/03/21 01:13:10;;;;;;;70.45;26.75;;;9.40;99.90;;;;;;4987875;28;20457;-75
2023/03/21 01:15:41;;;;;;;68.63;26.13;;;9.40;99.90;;;;;;4985501;28;20434;-76
2023/03/21 01:18:08;;;;;;;71.43;27.35;;;9.30;99.90;;;;;;4971837;28;20428;-74
2023/03/21 01:20:33;;;;;;;67.75;27.20;;;9.40;99.90;;;;;;4976873;28;20427;-76
2023/03/21 01:22:59;;;;;;;76.20;29.05;;;9.30;99.90;;;;;;4984730;28;20438;-75
2023/03/21 01:25:25;;;;;;;64.72;28.83;;;9.50;99.90;;;;;;4985886;28;20442;-75
2023/03/21 01:27:51;;;;;;;65.47;28.63;;;9.30;99.90;;;;;;4986012;28;20431;-76
2023/03/21 01:30:17;;;;;;;66.83;27.70;;;9.40;99.90;;;;;;4987065;28;20458;-74
2023/03/21 01:32:43;;;;;;;67.07;29.60;;;9.40;99.90;;;;;;4983646;28;20430;-75
2023/03/21 01:35:08;;;;;;;55.00;26.80;;;9.40;99.90;;;;;;4988290;28;20428;-75
2023/03/21 01:37:34;;;;;;;51.43;26.10;;;9.50;99.90;;;;;;4982005;28;20430;-75
2023/03/21 01:40:00;;;;;;;47.73;25.20;;;9.40;99.90;;;;;;4987254;28;20419;-75
2023/03/21 01:42:25;;;;;;;44.53;24.92;;;9.40;99.90;;;;;;4970902;28;20422;-76
2023/03/21 01:44:59;;;;;;;44.05;24.42;;;9.50;99.90;;;;;;4982850;28;20428;-75
2023/03/21 01:47:26;;;;;;;34.42;22.80;;;9.40;99.90;;;;;;4976660;28;20505;-74
2023/03/21 01:49:55;;;;;;;36.00;23.05;;;9.50;99.90;;;;;;4988352;28;20442;-75
2023/03/21 01:52:27;;;;;;;32.83;21.83;;;9.40;99.90;;;;;;4985569;28;20918;-75
2023/03/21 01:54:55;;;;;;;39.83;23.23;;;9.40;99.90;;;;;;4987707;28;20464;-74
2023/03/21 01:57:31;;;;;;;33.85;21.65;;;9.40;99.90;;;;;;4987783;28;20429;-75
2023/03/21 02:00:01;;;;;;;28.90;20.88;;;9.50;99.90;;;;;;4985442;28;20446;-74
2023/03/21 02:02:30;;;;;;;29.65;20.70;;;9.40;99.90;;;;;;4985254;28;20426;-75
2023/03/21 02:04:58;;;;;;;25.83;18.67;;;9.40;99.90;;;;;;4985958;28;20418;-75
2023/03/21 02:07:30;;;;;;;25.42;18.92;;;9.50;99.90;;;;;;4987816;28;20770;-74
2023/03/21 02:09:57;;;;;;;23.45;18.10;;;9.60;99.90;;;;;;5063355;23;20433;-75
2023/03/21 02:12:25;;;;;;;23.95;18.92;;;9.50;99.90;;;;;;5003130;28;20420;-75
2023/03/21 02:14:52;;;;;;;24.02;18.13;;;9.50;99.90;;;;;;5003998;28;20425;-77
2023/03/21 02:17:41;;;;;;;23.35;18.02;;;9.40;99.90;;;;;;5000747;28;20510;-75
2023/03/21 02:20:28;;;;;;;26.25;20.00;;;9.50;99.90;;;;;;4987888;28;20414;-76
2023/03/21 02:23:05;;;;;;;23.17;18.25;;;9.50;99.90;;;;;;4996614;28;20515;-75
2023/03/21 02:25:52;;;;;;;21.42;18.52;;;9.40;99.90;;;;;;5008094;28;20408;-75
2023/03/21 02:28:52;;;;;;;22.25;18.25;;;9.50;99.90;;;;;;5001727;28;20433;-76
2023/03/21 02:31:21;;;;;;;20.45;17.13;;;9.50;99.90;;;;;;5007413;28;20432;-76
2023/03/21 02:33:59;;;;;;;21.88;18.50;;;9.50;99.90;;;;;;4993668;28;21179;-76
2023/03/21 02:36:59;;;;;;;22.73;19.03;;;9.50;99.90;;;;;;4996568;28;20467;-76
2023/03/21 02:39:39;;;;;;;20.10;18.00;;;9.40;99.90;;;;;;4987821;28;20454;-75
2023/03/21 02:42:06;;;;;;;20.83;17.80;;;9.50;99.90;;;;;;5002899;28;20430;-75
2023/03/21 02:44:41;;;;;;;20.30;17.58;;;9.50;99.90;;;;;;4988528;28;20434;-76
2023/03/21 02:47:19;;;;;;;20.23;18.02;;;9.50;99.90;;;;;;4984393;28;21060;-75
2023/03/21 02:49:57;;;;;;;22.13;19.13;;;9.50;99.90;;;;;;4986980;28;20430;-74
2023/03/21 02:52:29;;;;;;;26.58;20.70;;;9.50;99.90;;;;;;4988650;28;20418;-74
2023/03/21 02:54:57;;;;;;;24.40;19.95;;;9.50;99.90;;;;;;5005679;28;20444;-74
2023/03/21 02:57:22;;;;;;;26.17;20.10;;;9.40;99.90;;;;;;5002059;28;20512;-75
2023/03/21 02:59:50;;;;;;;25.10;19.63;;;9.50;99.90;;;;;;5006296;28;20483;-75
2023/03/21 03:02:19;;;;;;;27.38;19.73;;;9.50;99.90;;;;;;5006777;28;20499;-74
2023/03/21 03:04:46;;;;;;;26.13;19.75;;;9.50;99.90;;;;;;5004748;28;20505;-74
2023/03/21 03:07:30;;;;;;;26.00;19.95;;;9.50;99.90;;;;;;5004933;28;20429;-75
2023/03/21 03:10:02;;;;;;;29.70;20.07;;;9.50;99.90;;;;;;4997723;28;20432;-76
2023/03/21 03:12:44;;;;;;;25.02;19.08;;;9.50;99.90;;;;;;5005830;28;20956;-74
2023/03/21 03:15:28;;;;;;;29.83;20.58;;;9.50;99.90;;;;;;4986938;28;20410;-75
2023/03/21 03:18:06;;;;;;;28.73;19.25;;;9.50;99.90;;;;;;4986482;28;20502;-75
2023/03/21 03:20:52;;;;;;;33.38;20.80;;;9.60;99.90;;;;;;4990043;28;20436;-75
2023/03/21 03:23:21;;;;;;;34.33;20.73;;;9.50;99.90;;;;;;4991100;28;20873;-75
2023/03/21 03:25:58;;;;;;;31.23;21.23;;;9.50;99.90;;;;;;5005963;28;21164;-75
2023/03/21 03:28:30;;;;;;;29.75;20.75;;;9.50;99.90;;;;;;5002262;28;20430;-76
2023/03/21 03:30:58;;;;;;;28.77;19.52;;;9.50;99.90;;;;;;4985779;28;20467;-75
2023/03/21 03:33:25;;;;;;;30.98;19.00;;;9.60;99.90;;;;;;4990313;28;20938;-75
2023/03/21 03:35:53;;;;;;;32.20;20.07;;;9.60;99.90;;;;;;4990713;28;20792;-75
2023/03/21 03:38:22;;;;;;;28.10;18.45;;;9.60;99.90;;;;;;4991782;28;20421;-75
2023/03/21 03:40:53;;;;;;;29.65;19.00;;;9.50;99.90;;;;;;5004053;28;20430;-75
2023/03/21 03:43:38;;;;;;;25.13;17.67;;;9.50;99.90;;;;;;4989734;28;20553;-76
2023/03/21 03:46:31;;;;;;;36.25;20.35;;;9.60;99.90;;;;;;5008169;28;20433;-75
2023/03/21 03:49:05;;;;;;;33.22;19.27;;;9.50;99.90;;;;;;5007242;28;20544;-76
2023/03/21 03:51:48;;;;;;;30.38;18.58;;;9.60;99.90;;;;;;4991001;28;20438;-74
2023/03/21 03:54:22;;;;;;;31.67;18.73;;;9.60;99.90;;;;;;4994325;28;20923;-75
2023/03/21 03:56:48;;;;;;;28.73;18.05;;;9.60;99.90;;;;;;5011047;28;20534;-77
2023/03/21 03:59:18;;;;;;;27.38;17.45;;;9.60;99.90;;;;;;5010230;28;20427;-74
2023/03/21 04:01:44;;;;;;;28.13;17.70;;;9.50;99.90;;;;;;5010049;28;20500;-74
2023/03/21 04:04:12;;;;;;;30.15;16.45;;;9.50;99.90;;;;;;5001243;28;20446;-74
2023/03/21 04:06:37;;;;;;;32.53;18.00;;;9.50;99.90;;;;;;5004481;28;20438;-74
2023/03/21 04:09:03;;;;;;;31.23;17.92;;;9.50;99.90;;;;;;4984919;28;20505;-76
2023/03/21 04:11:29;;;;;;;30.17;17.63;;;9.50;99.90;;;;;;5005645;28;20524;-74
2023/03/21 04:13:55;;;;;;;33.57;18.13;;;9.50;99.90;;;;;;5006799;28;20941;-75
2023/03/21 04:16:22;;;;;;;28.30;17.53;;;9.60;99.90;;;;;;4988891;28;20437;-74
2023/03/21 04:18:48;;;;;;;30.35;17.95;;;9.50;99.90;;;;;;4989167;28;20414;-73
2023/03/21 04:21:14;;;;;;;34.28;18.73;;;9.50;99.90;;;;;;5008558;28;20424;-74
2023/03/21 04:23:40;;;;;;;27.17;17.25;;;9.50;99.90;;;;;;5010093;28;20427;-74
2023/03/21 04:26:07;;;;;;;38.53;20.08;;;9.50;99.90;;;;;;4990468;28;20438;-74
2023/03/21 04:28:35;;;;;;;40.37;19.77;;;9.50;99.90;;;;;;5005806;28;20539;-75
2023/03/21 04:31:01;;;;;;;38.00;20.80;;;9.50;99.90;;;;;;5008357;28;20536;-75
2023/03/21 04:33:27;;;;;;;29.60;18.48;;;9.50;99.90;;;;;;4988820;28;20425;-75
2023/03/21 04:35:55;;;;;;;31.60;18.42;;;9.50;99.90;;;;;;5007979;28;20778;-76
2023/03/21 04:38:22;;;;;;;34.90;20.63;;;9.50;99.90;;;;;;5000702;28;20493;-75
2023/03/21 04:40:48;;;;;;;34.78;20.08;;;9.60;99.90;;;;;;5003874;28;21013;-77
2023/03/21 04:43:14;;;;;;;35.83;20.50;;;9.60;99.90;;;;;;5008490;28;20512;-76
2023/03/21 04:45:40;;;;;;;32.63;20.02;;;9.50;99.90;;;;;;4999237;28;20904;-76
2023/03/21 04:48:05;;;;;;;40.63;22.15;;;9.50;99.90;;;;;;5001005;28;20455;-75
2023/03/21 04:50:31;;;;;;;38.50;23.02;;;9.60;99.90;;;;;;4997854;28;20445;-76
2023/03/21 04:52:57;;;;;;;32.67;19.73;;;9.60;99.90;;;;;;4990519;28;20417;-75
2023/03/21 04:55:25;;;;;;;32.13;20.70;;;9.60;99.90;;;;;;4999754;28;20435;-75
2023/03/21 04:57:51;;;;;;;28.15;21.00;;;9.60;99.90;;;;;;5010620;28;20747;-75
2023/03/21 05:00:17;;;;;;;36.92;22.88;;;9.60;99.90;;;;;;5000241;28;20515;-76
2023/03/21 05:02:43;;;;;;;28.73;19.67;;;9.50;99.90;;;;;;5001266;28;20434;-76
2023/03/21 05:05:10;;;;;;;32.50;22.08;;;9.70;99.90;;;;;;4995329;28;20424;-77
2023/03/21 05:07:40;;;;;;;32.72;22.67;;;9.60;99.90;;;;;;4996463;28;20460;-76
2023/03/21 05:10:08;;;;;;;27.60;20.33;;;9.50;99.90;;;;;;5008489;28;20425;-75
2023/03/21 05:12:34;;;;;;;27.33;20.30;;;9.60;99.90;;;;;;5010115;28;21090;-74
2023/03/21 05:15:00;;;;;;;33.07;22.50;;;9.60;99.90;;;;;;5007484;28;20457;-76
2023/03/21 05:17:27;;;;;;;27.00;19.95;;;9.70;99.90;;;;;;5007665;28;20428;-76
2023/03/21 05:19:55;;;;;;;25.17;19.00;;;9.60;99.90;;;;;;4995652;28;20437;-75
2023/03/21 05:22:23;;;;;;;25.97;18.83;;;9.60;99.90;;;;;;5009664;28;20921;-76
2023/03/21 05:24:49;;;;;;;31.43;19.57;;;9.50;99.90;;;;;;5009349;28;20420;-77
2023/03/21 05:27:33;;;;;;;28.98;20.05;;;9.70;99.90;;;;;;5010259;28;21018;-76
2023/03/21 05:30:11;;;;;;;26.90;19.50;;;9.60;99.90;;;;;;5000259;28;20427;-76
2023/03/21 05:32:37;;;;;;;28.30;19.42;;;9.60;99.90;;;;;;4994073;28;20423;-75
2023/03/21 05:35:04;;;;;;;27.45;19.15;;;9.70;99.90;;;;;;4989347;28;20429;-75
2023/03/21 05:37:30;;;;;;;25.35;19.08;;;9.60;99.90;;;;;;5009993;28;20412;-74
2023/03/21 05:39:55;;;;;;;27.50;19.53;;;9.60;99.90;;;;;;5006831;28;20427;-76
2023/03/21 05:42:22;;;;;;;26.00;18.50;;;9.70;99.90;;;;;;5008732;28;20432;-75
2023/03/21 05:44:48;;;;;;;22.63;17.55;;;9.70;99.90;;;;;;5009307;28;20938;-76
2023/03/21 05:47:15;;;;;;;22.40;17.02;;;9.70;99.90;;;;;;4998573;28;20511;-76
2023/03/21 05:49:41;;;;;;;25.52;17.75;;;9.70;99.90;;;;;;5009355;28;20416;-75
2023/03/21 05:52:07;;;;;;;24.42;16.80;;;9.70;99.90;;;;;;5007005;28;20714;-76
2023/03/21 05:54:33;;;;;;;25.30;17.58;;;9.60;99.90;;;;;;5005414;28;20420;-74
2023/03/21 05:56:59;;;;;;;23.73;17.30;;;9.70;99.90;;;;;;4990652;28;20869;-74
2023/03/21 05:59:25;;;;;;;23.15;16.65;;;9.60;99.90;;;;;;5009898;28;20417;-75
2023/03/21 06:01:51;;;;;;;23.95;16.70;;;9.60;99.90;;;;;;5006230;28;20975;-76
2023/03/21 06:04:17;;;;;;;21.48;16.30;;;9.70;99.90;;;;;;5005646;28;20447;-76
2023/03/21 06:06:42;;;;;;;21.80;16.52;;;9.60;99.90;;;;;;5000552;28;20434;-75
2023/03/21 06:09:08;;;;;;;27.73;18.13;;;9.70;99.90;;;;;;4987882;28;20981;-76
2023/03/21 06:11:36;;;;;;;29.60;19.88;;;9.70;99.90;;;;;;5004660;28;20871;-75
2023/03/21 06:14:02;;;;;;;24.52;18.35;;;9.70;99.90;;;;;;4995873;28;20437;-76
2023/03/21 06:16:29;;;;;;;26.97;19.17;;;9.70;99.90;;;;;;5000224;28;20873;-74
2023/03/21 06:18:55;;;;;;;26.10;19.42;;;9.70;99.90;;;;;;5008034;28;20404;-75
2023/03/21 06:21:21;;;;;;;28.05;20.20;;;9.70;99.90;;;;;;5001460;28;20916;-74
2023/03/21 06:23:50;;;;;;;27.35;18.58;;;9.70;99.90;;;;;;4985461;28;20457;-74
2023/03/21 06:26:21;;;;;;;25.90;17.65;;;9.70;99.90;;;;;;4993193;28;20428;-75
2023/03/21 06:28:50;;;;;;;24.70;18.37;;;9.70;99.90;;;;;;5003805;28;20627;-74
2023/03/21 06:31:15;;;;;;;23.70;18.10;;;9.60;99.90;;;;;;4991931;28;20447;-74
2023/03/21 06:33:41;;;;;;;26.53;19.03;;;9.80;99.90;;;;;;5008318;28;20764;-75
2023/03/21 06:36:07;;;;;;;26.30;18.23;;;9.70;99.90;;;;;;5004845;28;20568;-75
2023/03/21 06:38:36;;;;;;;23.00;17.33;;;9.70;99.90;;;;;;4971109;28;20411;-75
2023/03/21 06:41:03;;;;;;;24.10;17.90;;;9.80;99.90;;;;;;4987338;28;20430;-75
2023/03/21 06:43:30;;;;;;;25.30;18.60;;;9.80;99.90;;;;;;4995288;28;20432;-75
2023/03/21 06:45:56;;;;;;;24.48;17.10;;;9.70;99.90;;;;;;5006084;28;20500;-75
2023/03/21 06:48:22;;;;;;;22.30;16.65;;;9.80;99.90;;;;;;4988351;28;20438;-75
2023/03/21 06:50:49;;;;;;;22.60;16.23;;;9.80;99.90;;;;;;4993331;28;20429;-75
2023/03/21 06:53:15;;;;;;;18.27;15.32;;;9.80;99.90;;;;;;4984339;28;20946;-74
2023/03/21 06:55:40;;;;;;;20.52;16.88;;;9.80;99.90;;;;;;5000514;28;20428;-74
2023/03/21 06:58:06;;;;;;;21.65;16.02;;;9.80;99.90;;;;;;5003835;28;20435;-74
2023/03/21 07:00:32;;;;;;;18.00;14.77;;;9.80;99.90;;;;;;5005712;28;20420;-74
2023/03/21 07:02:59;;;;;;;17.08;13.63;;;9.90;99.90;;;;;;5001156;28;20505;-74
2023/03/21 07:05:25;;;;;;;17.57;14.27;;;9.80;99.90;;;;;;5005366;28;20430;-75
2023/03/21 07:07:51;;;;;;;18.88;14.30;;;9.80;99.90;;;;;;5002812;28;20931;-75
2023/03/21 07:10:17;;;;;;;17.30;14.15;;;9.90;99.90;;;;;;5007594;28;20428;-75
2023/03/21 07:12:43;;;;;;;15.93;13.30;;;9.80;99.90;;;;;;5007306;28;20433;-75
2023/03/21 07:15:09;;;;;;;15.02;13.43;;;9.90;99.90;;;;;;5005859;28;20409;-75
2023/03/21 07:17:35;;;;;;;14.32;12.23;;;9.80;99.90;;;;;;5004247;28;20428;-75
2023/03/21 07:20:05;;;;;;;12.48;11.18;;;9.80;99.90;;;;;;4999972;28;20432;-75
2023/03/21 07:22:30;;;;;;;13.75;11.77;;;9.80;99.90;;;;;;4999967;28;20460;-73
2023/03/21 07:24:56;;;;;;;13.27;11.83;;;9.80;99.90;;;;;;5005719;28;20421;-74
2023/03/21 07:27:22;;;;;;;14.30;12.00;;;9.80;99.90;;;;;;5006536;28;20436;-75
2023/03/21 07:29:49;;;;;;;14.27;11.90;;;9.80;99.90;;;;;;5005849;28;20425;-74
2023/03/21 07:32:15;;;;;;;15.73;12.88;;;9.90;99.90;;;;;;5003670;28;20431;-75
2023/03/21 07:34:41;;;;;;;13.02;11.75;;;9.90;99.90;;;;;;5007028;28;20903;-75
2023/03/21 07:37:07;;;;;;;12.00;10.52;;;9.90;99.90;;;;;;5003201;28;20457;-75
2023/03/21 07:39:33;;;;;;;10.77;9.65;;;9.90;99.90;;;;;;5006718;28;20891;-75
2023/03/21 07:42:00;;;;;;;11.38;10.23;;;9.90;99.90;;;;;;5005805;28;20454;-75
2023/03/21 07:44:25;;;;;;;10.35;9.35;;;9.90;99.90;;;;;;5006960;28;20480;-75
2023/03/21 07:46:51;;;;;;;10.45;9.35;;;9.90;99.90;;;;;;5005241;28;21005;-75
2023/03/21 07:49:17;;;;;;;10.20;9.20;;;9.90;99.90;;;;;;4998529;28;20416;-75
2023/03/21 07:51:43;;;;;;;10.47;9.47;;;9.90;99.90;;;;;;4996270;28;20581;-75
2023/03/21 07:54:08;;;;;;;10.43;9.43;;;9.90;99.90;;;;;;5004457;28;20483;-75
2023/03/21 07:56:35;;;;;;;10.63;9.43;;;9.90;99.90;;;;;;4987602;28;20440;-75
2023/03/21 07:59:01;;;;;;;10.68;9.38;;;10.00;99.90;;;;;;4989205;28;20476;-76
2023/03/21 08:01:26;;;;;;;11.13;10.02;;;9.90;99.90;;;;;;4985172;28;20410;-75
2023/03/21 08:03:52;;;;;;;11.13;10.03;;;9.90;99.90;;;;;;4997848;28;20559;-75
2023/03/21 08:06:22;;;;;;;10.75;9.65;;;10.00;99.90;;;;;;4988876;28;20433;-75
2023/03/21 08:08:48;;;;;;;11.18;10.07;;;10.00;99.90;;;;;;5000111;28;20464;-74
2023/03/21 08:11:14;;;;;;;11.60;10.40;;;10.00;99.90;;;;;;4999693;28;21116;-75
2023/03/21 08:13:40;;;;;;;12.53;11.23;;;10.00;99.90;;;;;;4992976;28;20557;-75
2023/03/21 08:16:07;;;;;;;13.85;11.07;;;10.00;99.90;;;;;;4986268;28;20454;-78
2023/03/21 08:18:33;;;;;;;11.57;9.88;;;9.90;99.90;;;;;;4988372;28;20430;-75
2023/03/21 08:20:59;;;;;;;12.07;10.57;;;10.00;99.90;;;;;;5008559;28;20434;-74
2023/03/21 08:23:25;;;;;;;14.10;11.05;;;10.00;99.90;;;;;;5006921;28;20504;-75
2023/03/21 08:25:52;;;;;;;12.35;11.05;;;10.00;99.90;;;;;;5010525;28;20551;-78
2023/03/21 08:28:17;;;;;;;12.18;10.82;;;9.90;99.90;;;;;;4999917;28;20648;-74
2023/03/21 08:30:43;;;;;;;11.82;10.45;;;10.00;99.90;;;;;;5008379;28;20429;-75
2023/03/21 08:33:09;;;;;;;13.23;11.73;;;10.00;99.90;;;;;;5008057;28;20451;-75
2023/03/21 08:35:35;;;;;;;11.80;10.60;;;10.00;99.90;;;;;;4991156;28;21257;-73
2023/03/21 08:38:04;;;;;;;12.45;10.52;;;10.00;99.90;;;;;;4996733;28;20438;-75
2023/03/21 08:40:30;;;;;;;15.63;11.80;;;10.10;99.90;;;;;;4997597;28;20450;-74
2023/03/21 08:42:56;;;;;;;12.80;10.95;;;10.20;99.90;;;;;;5004508;28;20444;-74
2023/03/21 08:45:23;;;;;;;16.33;12.55;;;10.20;99.90;;;;;;5011467;28;20443;-75
2023/03/21 08:47:49;;;;;;;14.90;12.13;;;10.20;99.90;;;;;;5009367;28;20419;-74
2023/03/21 08:50:25;;;;;;;16.67;13.10;;;10.10;99.90;;;;;;4991272;28;20438;-75
2023/03/21 08:52:51;;;;;;;14.43;12.77;;;10.20;99.90;;;;;;4997808;28;21023;-75
2023/03/21 08:55:18;;;;;;;18.92;13.82;;;10.10;99.90;;;;;;4997667;28;20517;-75
2023/03/21 08:57:44;;;;;;;19.65;15.88;;;10.20;99.90;;;;;;5005179;28;20413;-74
2023/03/21 09:00:13;;;;;;;18.77;15.07;;;10.20;99.90;;;;;;4992087;28;20446;-77
2023/03/21 09:02:43;;;;;;;21.90;17.40;;;10.20;99.90;;;;;;5006364;28;20425;-74
2023/03/21 09:05:11;;;;;;;18.90;16.52;;;10.20;99.90;;;;;;5003902;28;20439;-75
2023/03/21 09:07:40;;;;;;;18.43;15.57;;;10.10;99.90;;;;;;5009991;28;20415;-75
2023/03/21 09:10:09;;;;;;;18.92;15.75;;;10.10;99.90;;;;;;5004707;28;20787;-75
2023/03/21 09:12:35;;;;;;;21.23;16.80;;;10.10;99.90;;;;;;4991282;28;20463;-74
2023/03/21 09:15:01;;;;;;;17.45;14.88;;;10.20;99.90;;;;;;5002291;28;20420;-74
2023/03/21 09:17:33;;;;;;;22.30;17.95;;;10.10;99.90;;;;;;4985517;28;20436;-75
2023/03/21 09:19:59;;;;;;;19.50;17.35;;;10.10;99.90;;;;;;5005129;28;20463;-74
2023/03/21 09:22:26;;;;;;;23.88;18.33;;;10.20;99.90;;;;;;5007336;28;20444;-74
2023/03/21 09:24:52;;;;;;;20.45;18.25;;;10.20;99.90;;;;;;5007839;28;20463;-74
2023/03/21 09:27:24;;;;;;;24.35;17.67;;;10.30;99.90;;;;;;5006776;28;20798;-74
2023/03/21 09:29:50;;;;;;;26.70;20.63;;;10.20;99.90;;;;;;5004466;28;20432;-74
2023/03/21 09:32:17;;;;;;;23.63;19.27;;;10.30;99.90;;;;;;4996269;28;20428;-74
2023/03/21 09:34:43;;;;;;;22.15;18.13;;;10.30;99.90;;;;;;4979953;28;20437;-74
2023/03/21 09:37:12;;;;;;;24.95;19.08;;;10.30;99.90;;;;;;4988616;28;20473;-74
2023/03/21 09:39:43;;;;;;;21.87;19.00;;;10.30;99.90;;;;;;4998522;28;20419;-74
2023/03/21 09:42:44;;;;;;;23.52;18.88;;;10.40;99.90;;;;;;5003160;28;20472;-73
2023/03/21 09:45:39;;;;;;;23.57;17.67;;;10.30;99.90;;;;;;5004746;28;20508;-74
2023/03/21 09:48:25;;;;;;;21.10;17.52;;;10.20;99.90;;;;;;4990074;28;20438;-74
2023/03/21 09:50:51;;;;;;;21.95;16.13;;;10.20;99.90;;;;;;4999247;28;20491;-73
2023/03/21 09:53:35;;;;;;;20.37;16.30;;;10.20;99.90;;;;;;4989022;28;20437;-73
2023/03/21 09:56:01;;;;;;;20.98;15.43;;;10.30;99.90;;;;;;5002413;28;20431;-74
2023/03/21 09:58:42;;;;;;;21.55;15.20;;;10.20;99.90;;;;;;4996318;28;20458;-74
2023/03/21 10:01:27;;;;;;;21.08;14.52;;;10.20;99.90;;;;;;4990807;28;20458;-74
2023/03/21 10:03:55;;;;;;;19.52;14.15;;;10.30;99.90;;;;;;4989987;28;20429;-73
2023/03/21 10:06:28;;;;;;;20.42;15.30;;;10.40;99.90;;;;;;5000644;28;20542;-74
2023/03/21 10:09:08;;;;;;;18.93;13.67;;;10.50;99.90;;;;;;5004311;28;20433;-72
2023/03/21 10:11:47;;;;;;;18.38;13.02;;;10.40;99.90;;;;;;5001138;28;20582;-76
2023/03/21 10:14:37;;;;;;;17.23;13.40;;;10.50;99.90;;;;;;5007982;28;20779;-73
2023/03/21 10:17:39;;;;;;;21.70;15.63;;;10.70;99.90;;;;;;4989933;28;20441;-73
2023/03/21 10:20:16;;;;;;;20.05;14.43;;;10.80;99.90;;;;;;4974012;28;20438;-74
2023/03/21 10:22:47;;;;;;;19.38;13.45;;;10.70;99.90;;;;;;4997177;28;20437;-73
2023/03/21 10:25:20;;;;;;;18.30;13.60;;;10.70;99.90;;;;;;4989075;28;20481;-74
2023/03/21 10:27:48;;;;;;;19.35;13.57;;;10.70;99.90;;;;;;5000996;28;20428;-74
2023/03/21 10:30:30;;;;;;;20.77;13.80;;;10.80;99.90;;;;;;5006719;28;20775;-73
2023/03/21 10:33:03;;;;;;;18.17;12.57;;;10.80;99.90;;;;;;4972749;28;20426;-73
2023/03/21 10:35:32;;;;;;;16.67;11.60;;;10.90;99.90;;;;;;5003350;28;20420;-74
2023/03/21 10:38:00;;;;;;;17.25;11.20;;;10.90;99.90;;;;;;4987928;28;20499;-73
2023/03/21 10:40:26;;;;;;;18.75;12.18;;;10.90;99.90;;;;;;4990933;28;20511;-73
2023/03/21 10:43:14;;;;;;;20.80;13.23;;;11.00;99.90;;;;;;4989728;28;21131;-73
2023/03/21 10:45:39;;;;;;;16.85;13.40;;;11.10;99.90;;;;;;4981711;28;20518;-73
2023/03/21 10:48:07;;;;;;;19.77;14.85;;;11.20;99.90;;;;;;4992361;28;20508;-73
2023/03/21 10:50:32;;;;;;;18.48;12.02;;;11.30;99.90;;;;;;5002370;28;20932;-74
2023/03/21 10:53:00;;;;;;;19.30;13.57;;;11.40;99.90;;;;;;5002603;28;20536;-73
2023/03/21 10:55:32;;;;;;;22.87;14.87;;;11.50;99.90;;;;;;4988341;28;20489;-73
2023/03/21 10:58:09;;;;;;;18.40;12.63;;;11.60;99.90;;;;;;4972092;28;20459;-74
2023/03/21 11:00:40;;;;;;;17.33;12.37;;;11.70;99.90;;;;;;4986988;28;20442;-73
2023/03/21 11:03:19;;;;;;;14.80;10.18;;;11.80;99.90;;;;;;4989431;28;20408;-73
2023/03/21 11:05:45;;;;;;;15.52;9.63;;;11.50;99.90;;;;;;4994721;28;20773;-73
2023/03/21 11:08:17;;;;;;;16.75;10.38;;;11.40;99.90;;;;;;4993984;28;20422;-73
2023/03/21 11:11:03;;;;;;;17.45;10.88;;;11.30;99.90;;;;;;4987988;28;20446;-73
2023/03/21 11:13:40;;;;;;;17.02;10.82;;;11.50;99.90;;;;;;4994822;28;20456;-74
2023/03/21 11:16:10;;;;;;;17.17;10.60;;;11.40;99.90;;;;;;4996720;28;20426;-72
2023/03/21 11:18:43;;;;;;;16.65;10.30;;;11.50;99.90;;;;;;4988575;28;20494;-73
2023/03/21 11:21:12;;;;;;;15.52;10.73;;;11.40;99.90;;;;;;5007332;28;20780;-73
2023/03/21 11:23:47;;;;;;;16.35;10.63;;;11.40;99.90;;;;;;5005840;28;20436;-73
2023/03/21 11:26:36;;;;;;;15.07;9.60;;;11.70;99.90;;;;;;5007207;28;20981;-73
2023/03/21 11:29:14;;;;;;;13.25;9.68;;;11.70;99.90;;;;;;4993159;28;20505;-73
2023/03/21 11:31:40;;;;;;;13.57;9.75;;;11.60;99.90;;;;;;4994971;28;20433;-73
2023/03/21 11:34:08;;;;;;;12.05;8.57;;;11.70;99.90;;;;;;5001265;28;20745;-74
2023/03/21 11:36:39;;;;;;;14.05;8.80;;;11.70;99.90;;;;;;4986262;28;20487;-74
2023/03/21 11:39:12;;;;;;;11.45;8.50;;;11.90;99.90;;;;;;4989655;28;20440;-73
2023/03/21 11:41:40;;;;;;;15.30;9.77;;;11.90;99.90;;;;;;5004073;28;20943;-74
2023/03/21 11:44:22;;;;;;;16.65;9.50;;;11.90;99.90;;;;;;5004639;28;20564;-74
2023/03/21 11:46:47;;;;;;;13.57;8.63;;;12.00;99.90;;;;;;5005146;28;20412;-74
2023/03/21 11:49:13;;;;;;;11.98;8.80;;;11.80;99.90;;;;;;4998843;28;20799;-74
2023/03/21 11:52:02;;;;;;;15.73;10.37;;;12.00;99.90;;;;;;5007037;28;20771;-74
2023/03/21 11:54:43;;;;;;;15.88;9.60;;;12.00;99.90;;;;;;5009016;28;20428;-74
2023/03/21 11:57:37;;;;;;;13.45;9.00;;;11.80;99.90;;;;;;5011228;28;20468;-74
2023/03/21 12:00:16;;;;;;;16.00;10.33;;;11.80;99.90;;;;;;4996512;28;20476;-74
2023/03/21 12:03:08;;;;;;;13.90;9.23;;;11.80;99.90;;;;;;4999488;28;20421;-73
2023/03/21 12:05:43;;;;;;;14.27;9.80;;;11.90;99.90;;;;;;5000645;28;20541;-74
2023/03/21 12:08:43;;;;;;;16.00;9.05;;;11.80;99.90;;;;;;4995268;28;21160;-74
2023/03/21 12:11:41;;;;;;;13.15;9.25;;;11.70;99.90;;;;;;4996855;28;20928;-73
2023/03/21 12:14:22;;;;;;;12.20;9.17;;;11.60;99.90;;;;;;4991300;28;20496;-73
2023/03/21 12:17:27;;;;;;;13.10;8.82;;;11.50;99.90;;;;;;4995504;28;20447;-74
2023/03/21 12:20:11;;;;;;;12.75;8.00;;;11.60;99.90;;;;;;4957776;28;20509;-74
2023/03/21 12:22:45;;;;;;;14.07;8.23;;;11.60;99.90;;;;;;4999405;28;20440;-74
2023/03/21 12:25:26;;;;;;;12.85;9.27;;;11.60;99.90;;;;;;4996065;28;20434;-74
2023/03/21 12:28:21;;;;;;;14.27;9.70;;;11.70;99.90;;;;;;4999851;28;20430;-74
2023/03/21 12:31:31;;;;;;;15.20;9.80;;;11.80;99.90;;;;;;4997633;28;20506;-74
2023/03/21 12:34:23;;;;;;;19.58;8.40;;;11.70;99.90;;;;;;4985404;28;20432;-75
2023/03/21 12:37:10;;;;;;;15.57;8.52;;;11.80;99.90;;;;;;4983984;28;20494;-73
2023/03/21 12:39:39;;;;;;;14.57;8.32;;;12.00;99.90;;;;;;4640223;23;22690;-73
2023/03/21 12:42:24;;;;;;;15.80;8.73;;;12.10;99.90;;;;;;4981935;28;20950;-74
2023/03/21 12:45:16;;;;;;;15.50;7.88;;;12.10;99.90;;;;;;4986295;28;20480;-75
2023/03/21 12:47:48;;;;;;;15.70;8.73;;;12.20;99.90;;;;;;4963525;28;20470;-74
2023/03/21 12:50:20;;;;;;;14.67;7.90;;;12.30;99.90;;;;;;4981315;28;20822;-75
2023/03/21 12:52:58;;;;;;;14.27;8.25;;;12.30;99.90;;;;;;5009254;28;20404;-74
2023/03/21 12:55:30;;;;;;;13.88;8.15;;;12.40;99.90;;;;;;4989095;28;20422;-74